createdAt,value
2022-08-14T00:03:05.001Z,28.42
2022-08-14T00:08:14.054Z,28.42
2022-08-14T00:13:20.427Z,28.41
2022-08-14T00:18:30.438Z,28.38
2022-08-14T00:23:53.819Z,28.35
2022-08-14T00:28:58.399Z,28.34
2022-08-14T00:34:37.328Z,28.30
2022-08-14T00:39:23.989Z,28.30
2022-08-14T00:44:32.419Z,28.28
2022-08-14T00:49:42.662Z,28.24
2022-08-14T00:54:52.886Z,28.24
2022-08-14T01:00:02.988Z,28.21
2022-08-14T01:05:07.608Z,28.22
2022-08-14T01:10:12.221Z,28.19
2022-08-14T01:15:21.390Z,28.15
2022-08-14T01:21:01.051Z,28.13
2022-08-14T01:26:05.971Z,28.13
2022-08-14T01:31:16.557Z,28.10
2022-08-14T01:36:23.260Z,28.06
2022-08-14T01:41:30.099Z,28.05
2022-08-14T01:46:37.787Z,28.05
2022-08-14T01:51:41.798Z,28.03
2022-08-14T01:56:47.507Z,28.00
2022-08-14T02:01:59.882Z,27.99
2022-08-14T02:07:03.591Z,27.98
2022-08-14T02:12:10.583Z,27.92
2022-08-14T02:17:23.632Z,27.90
2022-08-14T02:22:28.995Z,27.91
2022-08-14T02:28:24.608Z,27.85
2022-08-14T02:33:01.236Z,27.86
2022-08-14T02:38:04.483Z,27.82
2022-08-14T02:43:08.686Z,27.81
2022-08-14T02:49:03.870Z,27.79
2022-08-14T02:53:42.442Z,27.75
2022-08-14T02:58:49.637Z,27.74
2022-08-14T03:03:53.249Z,27.72
2022-08-14T03:08:57.204Z,27.70
2022-08-14T03:14:02.186Z,27.67
2022-08-14T03:19:07.158Z,27.67
2022-08-14T03:24:16.376Z,27.64
2022-08-14T03:29:27.623Z,27.61
2022-08-14T03:34:47.852Z,27.61
2022-08-14T03:39:55.255Z,27.59
2022-08-14T03:45:19.857Z,27.56
2022-08-14T03:50:30.915Z,27.55
2022-08-14T03:55:34.560Z,27.53
2022-08-14T04:00:42.995Z,27.48
2022-08-14T04:05:48.707Z,27.46
2022-08-14T04:10:52.078Z,27.45
2022-08-14T04:16:01.901Z,27.44
2022-08-14T04:21:08.143Z,27.39
2022-08-14T04:26:27.228Z,27.39
2022-08-14T04:33:02.887Z,27.37
2022-08-14T04:37:24.489Z,27.36
2022-08-14T04:42:47.232Z,27.34
2022-08-14T04:48:13.836Z,27.34
2022-08-14T04:53:41.126Z,27.33
2022-08-14T04:58:48.044Z,27.33
2022-08-14T05:03:52.893Z,27.30
2022-08-14T05:09:00.379Z,27.38
2022-08-14T05:14:43.487Z,27.43
2022-08-14T05:19:29.363Z,27.63
2022-08-14T05:24:32.626Z,27.83
2022-08-14T05:29:36.114Z,28.00
2022-08-14T05:34:40.214Z,28.05
2022-08-14T05:39:48.536Z,28.11
2022-08-14T05:44:54.149Z,28.26
2022-08-14T05:49:59.610Z,28.32
2022-08-14T05:55:02.823Z,28.29
2022-08-14T06:00:06.705Z,28.31
2022-08-14T06:05:13.246Z,28.42
2022-08-14T06:10:19.029Z,28.44
2022-08-14T06:15:25.144Z,28.47
2022-08-14T06:20:34.328Z,28.55
2022-08-14T06:25:37.271Z,28.44
2022-08-14T06:30:46.271Z,28.51
2022-08-14T06:35:51.532Z,28.61
2022-08-14T06:40:54.490Z,28.75
2022-08-14T06:45:57.489Z,28.90
2022-08-14T06:51:04.623Z,28.96
2022-08-14T06:56:08.632Z,29.01
2022-08-14T07:01:29.488Z,29.06
2022-08-14T07:06:46.193Z,29.08
2022-08-14T07:11:49.855Z,29.05
2022-08-14T07:16:53.896Z,29.06
2022-08-14T07:21:57.972Z,29.06
2022-08-14T07:27:00.700Z,29.08
2022-08-14T07:32:03.481Z,29.08
2022-08-14T07:37:07.546Z,29.07
2022-08-14T07:42:12.882Z,29.07
2022-08-14T07:47:16.572Z,29.09
2022-08-14T07:52:21.967Z,29.08
2022-08-14T07:57:33.090Z,29.06
2022-08-14T08:02:36.411Z,29.01
2022-08-14T08:07:46.407Z,29.04
2022-08-14T08:12:53.834Z,29.02
2022-08-14T08:18:01.107Z,29.02
2022-08-14T08:23:07.146Z,28.98
2022-08-14T08:28:22.012Z,29.02
2022-08-14T08:33:31.869Z,29.05
2022-08-14T08:39:14.995Z,29.04
2022-08-14T08:44:05.851Z,29.08
2022-08-14T08:49:20.345Z,29.08
2022-08-14T08:54:26.661Z,29.11
2022-08-14T08:59:34.603Z,29.15
2022-08-14T09:04:45.361Z,29.17
2022-08-14T09:09:59.980Z,29.19
2022-08-14T09:15:11.447Z,29.22
2022-08-14T09:20:25.909Z,29.28
2022-08-14T09:26:00.290Z,29.35
2022-08-14T09:30:58.182Z,29.39
2022-08-14T09:36:12.599Z,29.40
2022-08-14T09:42:20.445Z,29.40
2022-08-14T09:46:59.750Z,29.39
2022-08-14T09:52:32.783Z,29.44
2022-08-14T09:57:32.232Z,29.40
2022-08-14T10:02:37.308Z,29.36
2022-08-14T10:07:53.930Z,29.34
2022-08-14T10:13:06.225Z,29.32
2022-08-14T10:18:17.367Z,29.32
2022-08-14T10:23:23.235Z,29.30
2022-08-14T10:29:03.929Z,29.29
2022-08-14T10:34:04.980Z,29.30
2022-08-14T10:39:17.929Z,29.27
2022-08-14T10:44:24.933Z,29.25
2022-08-14T10:49:34.133Z,29.20
2022-08-14T10:54:40.262Z,29.22
2022-08-14T10:59:49.774Z,29.18
2022-08-14T11:05:13.335Z,29.22
2022-08-14T11:10:17.596Z,29.20
2022-08-14T11:15:24.208Z,29.20
2022-08-14T11:20:29.632Z,29.21
2022-08-14T11:25:44.002Z,29.18
2022-08-14T11:30:57.507Z,29.19
2022-08-14T11:36:17.100Z,29.19
2022-08-14T11:41:21.438Z,29.20
2022-08-14T11:46:30.193Z,29.19
2022-08-14T11:51:52.962Z,29.22
2022-08-14T11:56:57.008Z,29.25
2022-08-14T12:03:01.138Z,29.26
2022-08-14T12:07:36.831Z,29.26
2022-08-14T12:12:56.407Z,29.28
2022-08-14T12:18:01.098Z,29.30
2022-08-14T12:23:05.666Z,29.30
2022-08-14T12:28:26.948Z,29.33
2022-08-14T12:33:37.928Z,29.31
2022-08-14T12:38:54.266Z,29.31
2022-08-14T12:43:59.490Z,29.34
2022-08-14T12:49:15.932Z,29.35
2022-08-14T12:54:28.398Z,29.35
2022-08-14T12:59:33.166Z,29.37
2022-08-14T13:04:43.257Z,29.39
2022-08-14T13:09:45.991Z,29.40
2022-08-14T13:14:51.055Z,29.42
2022-08-14T13:19:57.914Z,29.44
2022-08-14T13:25:01.167Z,29.48
2022-08-14T13:30:14.452Z,29.50
2022-08-14T13:35:27.709Z,29.54
2022-08-14T13:40:32.871Z,29.57
2022-08-14T13:46:00.406Z,29.57
2022-08-14T13:51:01.546Z,29.59
2022-08-14T13:56:05.147Z,29.63
2022-08-14T14:01:09.256Z,29.63
2022-08-14T14:06:15.027Z,29.64
2022-08-14T14:11:23.954Z,29.65
2022-08-14T14:16:30.880Z,29.69
2022-08-14T14:21:35.419Z,29.71
2022-08-14T14:26:39.645Z,29.70
2022-08-14T14:31:42.685Z,29.70
2022-08-14T14:36:49.868Z,29.72
2022-08-14T14:41:56.363Z,29.73
2022-08-14T14:47:00.699Z,29.75
2022-08-14T14:52:06.834Z,29.78
2022-08-14T14:57:13.872Z,29.81
2022-08-14T15:02:28.997Z,29.83
2022-08-14T15:07:33.322Z,29.85
2022-08-14T15:12:57.500Z,29.87
2022-08-14T15:17:59.418Z,29.90
2022-08-14T15:23:11.660Z,29.90
2022-08-14T15:28:21.490Z,29.90
2022-08-14T15:33:38.522Z,29.92
2022-08-14T15:39:02.783Z,29.94
2022-08-14T15:44:05.659Z,29.95
2022-08-14T15:49:34.484Z,29.96
2022-08-14T15:54:39.123Z,29.93
2022-08-14T15:59:59.317Z,29.99
2022-08-14T16:05:02.124Z,29.99
2022-08-14T16:10:29.276Z,30.01
2022-08-14T16:15:32.017Z,30.02
2022-08-14T16:20:42.172Z,30.03
2022-08-14T16:25:49.033Z,30.05
2022-08-14T16:30:56.093Z,30.06
2022-08-14T16:36:01.515Z,30.08
2022-08-14T16:41:26.413Z,30.07
2022-08-14T16:46:32.585Z,30.10
2022-08-14T16:51:38.342Z,30.09
2022-08-14T16:56:43.342Z,30.10
2022-08-14T17:01:48.545Z,30.12
2022-08-14T17:06:54.913Z,30.13
2022-08-14T17:12:07.659Z,30.14
2022-08-14T17:17:11.276Z,30.16
2022-08-14T17:22:15.127Z,30.16
2022-08-14T17:27:22.698Z,30.20
2022-08-14T17:32:29.891Z,30.20
2022-08-14T17:37:55.824Z,30.21
2022-08-14T17:43:02.515Z,30.22
2022-08-14T17:48:08.763Z,30.23
2022-08-14T17:53:32.675Z,30.28
2022-08-14T17:58:42.056Z,30.32
2022-08-14T18:03:53.333Z,30.34
2022-08-14T18:08:58.765Z,30.37
2022-08-14T18:14:04.037Z,30.40
2022-08-14T18:19:09.608Z,30.41
2022-08-14T18:24:20.367Z,30.42
2022-08-14T18:29:35.995Z,30.43
2022-08-14T18:34:51.117Z,30.46
2022-08-14T18:40:03.461Z,30.47
2022-08-14T18:45:15.946Z,30.48
2022-08-14T18:50:27.403Z,30.49
2022-08-14T18:55:53.124Z,30.54
2022-08-14T19:00:59.773Z,30.54
2022-08-14T19:06:04.488Z,30.57
2022-08-14T19:11:45.420Z,30.58
2022-08-14T19:16:54.659Z,30.61
2022-08-14T19:21:58.039Z,30.62
2022-08-14T19:27:19.678Z,30.62
2022-08-14T19:32:40.781Z,30.63
2022-08-14T19:37:45.816Z,30.64
2022-08-14T19:42:49.579Z,30.63
2022-08-14T19:47:54.425Z,30.65
2022-08-14T19:53:11.283Z,30.65
2022-08-14T19:58:14.624Z,30.65
2022-08-14T20:03:23.330Z,30.61
2022-08-14T20:09:05.560Z,30.64
2022-08-14T20:14:00.941Z,30.63
2022-08-14T20:19:13.629Z,30.62
2022-08-14T20:24:30.781Z,30.61
2022-08-14T20:29:37.883Z,30.61
2022-08-14T20:34:51.235Z,30.58
2022-08-14T20:39:55.824Z,30.56
2022-08-14T20:45:19.862Z,30.55
2022-08-14T20:50:28.925Z,30.53
2022-08-14T20:55:37.248Z,30.51
2022-08-14T21:00:52.203Z,30.49
2022-08-14T21:05:58.298Z,30.49
2022-08-14T21:11:02.302Z,30.46
2022-08-14T21:16:30.758Z,30.44
2022-08-14T21:21:41.495Z,30.44
2022-08-14T21:26:52.048Z,30.41
2022-08-14T21:32:03.513Z,30.39
2022-08-14T21:37:25.046Z,30.40
2022-08-14T21:42:32.735Z,30.37
2022-08-14T21:47:39.077Z,30.36
2022-08-14T21:52:51.247Z,30.31
2022-08-14T21:58:53.331Z,30.33
2022-08-14T22:03:26.303Z,30.31
2022-08-14T22:08:39.694Z,30.27
2022-08-14T22:13:48.958Z,30.25
2022-08-14T22:18:51.912Z,30.23
2022-08-14T22:23:56.065Z,30.22
2022-08-14T22:28:59.487Z,30.19
2022-08-14T22:34:03.359Z,30.15
2022-08-14T22:39:11.133Z,30.11
2022-08-14T22:44:17.753Z,30.11
2022-08-14T22:50:31.832Z,30.08
2022-08-14T22:54:53.040Z,30.06
2022-08-14T22:59:56.646Z,30.04
2022-08-14T23:05:02.682Z,30.00
2022-08-14T23:10:33.766Z,29.99
2022-08-14T23:15:33.484Z,29.96
2022-08-14T23:20:37.209Z,29.96
2022-08-14T23:25:59.023Z,29.54
2022-08-14T23:31:05.708Z,29.16
2022-08-14T23:36:28.203Z,28.96
2022-08-14T23:41:45.715Z,28.82
2022-08-14T23:47:00.576Z,28.74
2022-08-14T23:52:51.665Z,28.62
2022-08-14T23:57:32.572Z,28.53
